sensor_id;sensor_type;location;lat;lon;timestamp;P1;durP1;ratioP1;P2;durP2;ratioP2
7817;SDS011;3954;52.624;9.212;2023-10-31T00:01:23;5.83;;;4.23;;
7817;SDS011;3954;52.624;9.212;2023-10-31T00:03:49;4.37;;;3.97;;
7817;SDS011;3954;52.624;9.212;2023-10-31T00:06:15;7.20;;;4.80;;
7817;SDS011;3954;52.624;9.212;2023-10-31T00:08:41;5.17;;;4.40;;
7817;SDS011;3954;52.624;9.212;2023-10-31T00:11:07;6.00;;;4.83;;
7817;SDS011;3954;52.624;9.212;2023-10-31T00:13:33;7.63;;;5.27;;
7817;SDS011;3954;52.624;9.212;2023-10-31T00:15:59;5.87;;;4.97;;
7817;SDS011;3954;52.624;9.212;2023-10-31T00:18:26;5.80;;;4.90;;
7817;SDS011;3954;52.624;9.212;2023-10-31T00:20:52;9.37;;;5.53;;
7817;SDS011;3954;52.624;9.212;2023-10-31T00:23:18;7.00;;;5.23;;
7817;SDS011;3954;52.624;9.212;2023-10-31T00:25:44;7.67;;;5.30;;
7817;SDS011;3954;52.624;9.212;2023-10-31T00:28:10;6.07;;;5.47;;
7817;SDS011;3954;52.624;9.212;2023-10-31T00:30:36;6.07;;;5.17;;
7817;SDS011;3954;52.624;9.212;2023-10-31T00:33:02;5.97;;;5.40;;
7817;SDS011;3954;52.624;9.212;2023-10-31T00:35:30;6.33;;;5.73;;
7817;SDS011;3954;52.624;9.212;2023-10-31T00:37:56;5.70;;;5.20;;
7817;SDS011;3954;52.624;9.212;2023-10-31T00:40:22;5.67;;;5.10;;
7817;SDS011;3954;52.624;9.212;2023-10-31T00:42:48;6.17;;;5.50;;
7817;SDS011;3954;52.624;9.212;2023-10-31T00:45:14;6.33;;;5.10;;
7817;SDS011;3954;52.624;9.212;2023-10-31T00:47:40;7.03;;;5.60;;
7817;SDS011;3954;52.624;9.212;2023-10-31T00:50:06;8.93;;;5.27;;
7817;SDS011;3954;52.624;9.212;2023-10-31T00:52:34;6.73;;;5.73;;
7817;SDS011;3954;52.624;9.212;2023-10-31T00:55:00;7.07;;;5.47;;
7817;SDS011;3954;52.624;9.212;2023-10-31T00:57:26;5.77;;;5.27;;
7817;SDS011;3954;52.624;9.212;2023-10-31T00:59:52;7.10;;;4.93;;
7817;SDS011;3954;52.624;9.212;2023-10-31T01:02:19;6.73;;;5.83;;
7817;SDS011;3954;52.624;9.212;2023-10-31T01:04:45;5.77;;;5.27;;
7817;SDS011;3954;52.624;9.212;2023-10-31T01:07:11;6.23;;;5.47;;
7817;SDS011;3954;52.624;9.212;2023-10-31T01:09:41;7.93;;;5.53;;
7817;SDS011;3954;52.624;9.212;2023-10-31T01:12:07;11.07;;;6.33;;
7817;SDS011;3954;52.624;9.212;2023-10-31T01:14:35;6.40;;;5.80;;
7817;SDS011;3954;52.624;9.212;2023-10-31T01:17:01;8.17;;;6.03;;
7817;SDS011;3954;52.624;9.212;2023-10-31T01:19:27;6.37;;;5.37;;
7817;SDS011;3954;52.624;9.212;2023-10-31T01:21:53;6.53;;;5.93;;
7817;SDS011;3954;52.624;9.212;2023-10-31T01:24:19;7.67;;;5.80;;
7817;SDS011;3954;52.624;9.212;2023-10-31T01:26:46;7.00;;;5.50;;
7817;SDS011;3954;52.624;9.212;2023-10-31T01:29:12;7.47;;;6.43;;
7817;SDS011;3954;52.624;9.212;2023-10-31T01:31:40;7.67;;;5.73;;
7817;SDS011;3954;52.624;9.212;2023-10-31T01:34:06;7.00;;;5.50;;
7817;SDS011;3954;52.624;9.212;2023-10-31T01:36:33;6.07;;;5.47;;
7817;SDS011;3954;52.624;9.212;2023-10-31T01:38:59;6.07;;;5.47;;
7817;SDS011;3954;52.624;9.212;2023-10-31T01:41:25;6.63;;;5.93;;
7817;SDS011;3954;52.624;9.212;2023-10-31T01:43:52;6.40;;;5.77;;
7817;SDS011;3954;52.624;9.212;2023-10-31T01:46:18;6.87;;;5.60;;
7817;SDS011;3954;52.624;9.212;2023-10-31T01:48:44;6.47;;;5.57;;
7817;SDS011;3954;52.624;9.212;2023-10-31T01:51:10;5.83;;;5.23;;
7817;SDS011;3954;52.624;9.212;2023-10-31T01:53:36;7.93;;;6.20;;
7817;SDS011;3954;52.624;9.212;2023-10-31T01:56:03;7.53;;;6.20;;
7817;SDS011;3954;52.624;9.212;2023-10-31T01:58:29;10.10;;;6.47;;
7817;SDS011;3954;52.624;9.212;2023-10-31T02:00:57;8.80;;;6.70;;
7817;SDS011;3954;52.624;9.212;2023-10-31T02:03:25;8.20;;;6.47;;
7817;SDS011;3954;52.624;9.212;2023-10-31T02:05:51;7.53;;;6.50;;
7817;SDS011;3954;52.624;9.212;2023-10-31T02:08:17;8.13;;;6.60;;
7817;SDS011;3954;52.624;9.212;2023-10-31T02:10:43;8.73;;;6.37;;
7817;SDS011;3954;52.624;9.212;2023-10-31T02:13:10;9.00;;;6.90;;
7817;SDS011;3954;52.624;9.212;2023-10-31T02:15:36;7.67;;;6.50;;
7817;SDS011;3954;52.624;9.212;2023-10-31T02:18:04;7.00;;;6.30;;
7817;SDS011;3954;52.624;9.212;2023-10-31T02:20:30;7.63;;;6.13;;
7817;SDS011;3954;52.624;9.212;2023-10-31T02:22:57;7.90;;;6.80;;
7817;SDS011;3954;52.624;9.212;2023-10-31T02:25:23;9.37;;;7.50;;
7817;SDS011;3954;52.624;9.212;2023-10-31T02:27:49;8.20;;;7.40;;
7817;SDS011;3954;52.624;9.212;2023-10-31T02:30:15;7.80;;;7.10;;
7817;SDS011;3954;52.624;9.212;2023-10-31T02:32:41;9.33;;;7.10;;
7817;SDS011;3954;52.624;9.212;2023-10-31T02:35:08;7.07;;;6.37;;
7817;SDS011;3954;52.624;9.212;2023-10-31T02:37:34;8.53;;;6.90;;
7817;SDS011;3954;52.624;9.212;2023-10-31T02:40:01;8.17;;;7.37;;
7817;SDS011;3954;52.624;9.212;2023-10-31T02:42:27;7.53;;;6.53;;
7817;SDS011;3954;52.624;9.212;2023-10-31T02:44:53;6.00;;;5.50;;
7817;SDS011;3954;52.624;9.212;2023-10-31T02:47:19;6.60;;;5.83;;
7817;SDS011;3954;52.624;9.212;2023-10-31T02:49:45;6.87;;;6.20;;
7817;SDS011;3954;52.624;9.212;2023-10-31T02:52:11;6.70;;;5.47;;
7817;SDS011;3954;52.624;9.212;2023-10-31T02:54:37;6.13;;;5.53;;
7817;SDS011;3954;52.624;9.212;2023-10-31T02:57:05;6.93;;;4.93;;
7817;SDS011;3954;52.624;9.212;2023-10-31T02:59:31;5.67;;;5.13;;
7817;SDS011;3954;52.624;9.212;2023-10-31T03:01:57;7.37;;;5.50;;
7817;SDS011;3954;52.624;9.212;2023-10-31T03:04:23;6.43;;;5.80;;
7817;SDS011;3954;52.624;9.212;2023-10-31T03:06:49;6.83;;;6.23;;
7817;SDS011;3954;52.624;9.212;2023-10-31T03:09:15;8.13;;;6.63;;
7817;SDS011;3954;52.624;9.212;2023-10-31T03:11:41;8.03;;;7.27;;
7817;SDS011;3954;52.624;9.212;2023-10-31T03:14:08;10.97;;;7.23;;
7817;SDS011;3954;52.624;9.212;2023-10-31T03:16:34;8.17;;;7.27;;
7817;SDS011;3954;52.624;9.212;2023-10-31T03:19:01;7.17;;;6.47;;
7817;SDS011;3954;52.624;9.212;2023-10-31T03:21:27;8.27;;;7.13;;
7817;SDS011;3954;52.624;9.212;2023-10-31T03:23:53;9.30;;;7.87;;
7817;SDS011;3954;52.624;9.212;2023-10-31T03:26:20;9.17;;;7.43;;
7817;SDS011;3954;52.624;9.212;2023-10-31T03:28:46;9.40;;;7.60;;
7817;SDS011;3954;52.624;9.212;2023-10-31T03:31:14;9.03;;;7.67;;
7817;SDS011;3954;52.624;9.212;2023-10-31T03:33:40;8.13;;;7.27;;
7817;SDS011;3954;52.624;9.212;2023-10-31T03:36:07;8.43;;;7.63;;
7817;SDS011;3954;52.624;9.212;2023-10-31T03:38:33;8.40;;;6.67;;
7817;SDS011;3954;52.624;9.212;2023-10-31T03:40:59;10.37;;;7.33;;
7817;SDS011;3954;52.624;9.212;2023-10-31T03:43:25;8.47;;;7.43;;
7817;SDS011;3954;52.624;9.212;2023-10-31T03:45:51;7.97;;;7.27;;
7817;SDS011;3954;52.624;9.212;2023-10-31T03:48:19;8.60;;;7.90;;
7817;SDS011;3954;52.624;9.212;2023-10-31T03:50:45;8.93;;;8.03;;
7817;SDS011;3954;52.624;9.212;2023-10-31T03:53:11;10.87;;;9.77;;
7817;SDS011;3954;52.624;9.212;2023-10-31T03:55:37;11.83;;;10.63;;
7817;SDS011;3954;52.624;9.212;2023-10-31T03:58:03;12.97;;;11.83;;
7817;SDS011;3954;52.624;9.212;2023-10-31T04:00:29;13.30;;;12.13;;
7817;SDS011;3954;52.624;9.212;2023-10-31T04:02:55;13.47;;;12.27;;
7817;SDS011;3954;52.624;9.212;2023-10-31T04:05:22;13.00;;;11.90;;
7817;SDS011;3954;52.624;9.212;2023-10-31T04:07:48;13.80;;;12.60;;
7817;SDS011;3954;52.624;9.212;2023-10-31T04:10:15;12.10;;;11.10;;
7817;SDS011;3954;52.624;9.212;2023-10-31T04:12:41;10.53;;;9.53;;
7817;SDS011;3954;52.624;9.212;2023-10-31T04:15:07;10.87;;;7.80;;
7817;SDS011;3954;52.624;9.212;2023-10-31T04:17:33;7.20;;;6.60;;
7817;SDS011;3954;52.624;9.212;2023-10-31T04:19:59;6.50;;;6.00;;
7817;SDS011;3954;52.624;9.212;2023-10-31T04:22:26;6.03;;;5.50;;
7817;SDS011;3954;52.624;9.212;2023-10-31T04:24:52;5.00;;;4.60;;
7817;SDS011;3954;52.624;9.212;2023-10-31T04:27:18;4.37;;;4.07;;
7817;SDS011;3954;52.624;9.212;2023-10-31T04:29:45;3.80;;;3.30;;
7817;SDS011;3954;52.624;9.212;2023-10-31T04:32:11;3.23;;;2.90;;
7817;SDS011;3954;52.624;9.212;2023-10-31T04:34:37;2.70;;;2.50;;
7817;SDS011;3954;52.624;9.212;2023-10-31T04:37:03;4.40;;;2.90;;
7817;SDS011;3954;52.624;9.212;2023-10-31T04:39:30;3.00;;;2.80;;
7817;SDS011;3954;52.624;9.212;2023-10-31T04:41:56;3.40;;;2.63;;
7817;SDS011;3954;52.624;9.212;2023-10-31T04:44:22;2.60;;;2.40;;
7817;SDS011;3954;52.624;9.212;2023-10-31T04:46:48;2.00;;;1.90;;
7817;SDS011;3954;52.624;9.212;2023-10-31T04:49:14;1.90;;;1.70;;
7817;SDS011;3954;52.624;9.212;2023-10-31T04:51:40;1.27;;;1.17;;
7817;SDS011;3954;52.624;9.212;2023-10-31T04:54:06;1.47;;;1.30;;
7817;SDS011;3954;52.624;9.212;2023-10-31T04:56:34;2.03;;;1.30;;
7817;SDS011;3954;52.624;9.212;2023-10-31T04:59:00;1.70;;;1.13;;
7817;SDS011;3954;52.624;9.212;2023-10-31T05:01:26;1.07;;;0.97;;
7817;SDS011;3954;52.624;9.212;2023-10-31T05:03:52;0.90;;;0.57;;
7817;SDS011;3954;52.624;9.212;2023-10-31T05:06:18;0.90;;;0.90;;
7817;SDS011;3954;52.624;9.212;2023-10-31T05:08:45;0.60;;;0.60;;
7817;SDS011;3954;52.624;9.212;2023-10-31T05:11:11;2.67;;;0.90;;
7817;SDS011;3954;52.624;9.212;2023-10-31T05:13:39;0.90;;;0.90;;
7817;SDS011;3954;52.624;9.212;2023-10-31T05:16:05;1.10;;;0.73;;
7817;SDS011;3954;52.624;9.212;2023-10-31T05:18:31;0.97;;;0.70;;
7817;SDS011;3954;52.624;9.212;2023-10-31T05:20:57;2.37;;;0.70;;
7817;SDS011;3954;52.624;9.212;2023-10-31T05:23:23;0.80;;;0.80;;
7817;SDS011;3954;52.624;9.212;2023-10-31T05:25:49;0.70;;;0.67;;
7817;SDS011;3954;52.624;9.212;2023-10-31T05:28:15;2.50;;;1.40;;
7817;SDS011;3954;52.624;9.212;2023-10-31T05:30:43;0.80;;;0.80;;
7817;SDS011;3954;52.624;9.212;2023-10-31T05:33:09;0.60;;;0.60;;
7817;SDS011;3954;52.624;9.212;2023-10-31T05:35:35;1.13;;;0.70;;
7817;SDS011;3954;52.624;9.212;2023-10-31T05:38:01;1.20;;;0.50;;
7817;SDS011;3954;52.624;9.212;2023-10-31T05:40:27;2.23;;;0.70;;
7817;SDS011;3954;52.624;9.212;2023-10-31T05:42:54;4.03;;;0.80;;
7817;SDS011;3954;52.624;9.212;2023-10-31T05:45:22;0.87;;;0.60;;
7817;SDS011;3954;52.624;9.212;2023-10-31T05:47:49;1.60;;;0.60;;
7817;SDS011;3954;52.624;9.212;2023-10-31T05:50:15;0.90;;;0.70;;
7817;SDS011;3954;52.624;9.212;2023-10-31T05:52:41;0.80;;;0.80;;
7817;SDS011;3954;52.624;9.212;2023-10-31T05:55:07;1.00;;;0.70;;
7817;SDS011;3954;52.624;9.212;2023-10-31T05:57:33;1.97;;;0.70;;
7817;SDS011;3954;52.624;9.212;2023-10-31T05:59:59;0.97;;;0.97;;
7817;SDS011;3954;52.624;9.212;2023-10-31T06:02:25;1.17;;;0.80;;
7817;SDS011;3954;52.624;9.212;2023-10-31T06:04:53;4.73;;;0.93;;
7817;SDS011;3954;52.624;9.212;2023-10-31T06:07:19;0.80;;;0.80;;
7817;SDS011;3954;52.624;9.212;2023-10-31T06:09:45;1.37;;;0.80;;
7817;SDS011;3954;52.624;9.212;2023-10-31T06:12:11;1.37;;;1.00;;
7817;SDS011;3954;52.624;9.212;2023-10-31T06:14:37;2.43;;;1.67;;
7817;SDS011;3954;52.624;9.212;2023-10-31T06:17:03;2.30;;;1.20;;
7817;SDS011;3954;52.624;9.212;2023-10-31T06:19:29;2.60;;;1.20;;
7817;SDS011;3954;52.624;9.212;2023-10-31T06:21:56;1.53;;;1.43;;
7817;SDS011;3954;52.624;9.212;2023-10-31T06:24:22;6.00;;;2.07;;
7817;SDS011;3954;52.624;9.212;2023-10-31T06:26:48;4.97;;;3.00;;
7817;SDS011;3954;52.624;9.212;2023-10-31T06:29:14;3.10;;;2.40;;
7817;SDS011;3954;52.624;9.212;2023-10-31T06:31:40;4.33;;;2.70;;
7817;SDS011;3954;52.624;9.212;2023-10-31T06:34:06;2.50;;;2.30;;
7817;SDS011;3954;52.624;9.212;2023-10-31T06:36:32;2.97;;;2.20;;
7817;SDS011;3954;52.624;9.212;2023-10-31T06:39:00;2.07;;;1.80;;
7817;SDS011;3954;52.624;9.212;2023-10-31T06:41:26;3.17;;;1.97;;
7817;SDS011;3954;52.624;9.212;2023-10-31T06:43:52;1.93;;;1.70;;
7817;SDS011;3954;52.624;9.212;2023-10-31T06:46:18;3.63;;;2.33;;
7817;SDS011;3954;52.624;9.212;2023-10-31T06:48:44;4.63;;;1.93;;
7817;SDS011;3954;52.624;9.212;2023-10-31T06:51:10;2.30;;;2.10;;
7817;SDS011;3954;52.624;9.212;2023-10-31T06:53:36;2.20;;;1.70;;
7817;SDS011;3954;52.624;9.212;2023-10-31T06:56:04;4.13;;;2.20;;
7817;SDS011;3954;52.624;9.212;2023-10-31T06:58:30;3.93;;;2.20;;
7817;SDS011;3954;52.624;9.212;2023-10-31T07:00:56;3.10;;;2.00;;
7817;SDS011;3954;52.624;9.212;2023-10-31T07:03:23;2.97;;;2.17;;
7817;SDS011;3954;52.624;9.212;2023-10-31T07:05:49;2.17;;;1.97;;
7817;SDS011;3954;52.624;9.212;2023-10-31T07:08:15;3.20;;;2.40;;
7817;SDS011;3954;52.624;9.212;2023-10-31T07:10:41;2.53;;;2.33;;
7817;SDS011;3954;52.624;9.212;2023-10-31T07:13:08;4.87;;;2.37;;
7817;SDS011;3954;52.624;9.212;2023-10-31T07:15:34;2.93;;;2.63;;
7817;SDS011;3954;52.624;9.212;2023-10-31T07:18:04;4.17;;;2.70;;
7817;SDS011;3954;52.624;9.212;2023-10-31T07:20:30;4.30;;;2.90;;
7817;SDS011;3954;52.624;9.212;2023-10-31T07:22:56;3.30;;;2.97;;
7817;SDS011;3954;52.624;9.212;2023-10-31T07:25:22;7.20;;;3.20;;
7817;SDS011;3954;52.624;9.212;2023-10-31T07:27:48;3.10;;;2.80;;
7817;SDS011;3954;52.624;9.212;2023-10-31T07:30:15;6.27;;;3.20;;
7817;SDS011;3954;52.624;9.212;2023-10-31T07:32:41;3.30;;;2.90;;
7817;SDS011;3954;52.624;9.212;2023-10-31T07:35:08;3.80;;;3.07;;
7817;SDS011;3954;52.624;9.212;2023-10-31T07:37:34;3.70;;;3.00;;
7817;SDS011;3954;52.624;9.212;2023-10-31T07:40:00;2.80;;;2.57;;
7817;SDS011;3954;52.624;9.212;2023-10-31T07:42:26;3.20;;;2.80;;
7817;SDS011;3954;52.624;9.212;2023-10-31T07:44:52;4.00;;;3.20;;
7817;SDS011;3954;52.624;9.212;2023-10-31T07:47:19;3.33;;;2.77;;
7817;SDS011;3954;52.624;9.212;2023-10-31T07:49:45;3.17;;;2.77;;
7817;SDS011;3954;52.624;9.212;2023-10-31T07:52:11;2.70;;;2.50;;
7817;SDS011;3954;52.624;9.212;2023-10-31T07:54:38;2.83;;;2.53;;
7817;SDS011;3954;52.624;9.212;2023-10-31T07:57:05;3.93;;;2.77;;
7817;SDS011;3954;52.624;9.212;2023-10-31T07:59:32;4.13;;;3.07;;
7817;SDS011;3954;52.624;9.212;2023-10-31T08:01:58;3.20;;;2.90;;
7817;SDS011;3954;52.624;9.212;2023-10-31T08:04:26;3.53;;;3.00;;
7817;SDS011;3954;52.624;9.212;2023-10-31T08:06:53;3.13;;;2.80;;
7817;SDS011;3954;52.624;9.212;2023-10-31T08:09:19;2.50;;;2.30;;
7817;SDS011;3954;52.624;9.212;2023-10-31T08:11:45;2.40;;;2.20;;
7817;SDS011;3954;52.624;9.212;2023-10-31T08:14:11;2.50;;;2.30;;
7817;SDS011;3954;52.624;9.212;2023-10-31T08:16:37;5.13;;;2.77;;
7817;SDS011;3954;52.624;9.212;2023-10-31T08:19:03;2.43;;;2.23;;
7817;SDS011;3954;52.624;9.212;2023-10-31T08:21:30;2.53;;;2.33;;
7817;SDS011;3954;52.624;9.212;2023-10-31T08:24:01;3.90;;;2.60;;
7817;SDS011;3954;52.624;9.212;2023-10-31T08:26:27;2.93;;;2.27;;
7817;SDS011;3954;52.624;9.212;2023-10-31T08:28:53;3.63;;;2.80;;
7817;SDS011;3954;52.624;9.212;2023-10-31T08:31:19;2.90;;;2.60;;
7817;SDS011;3954;52.624;9.212;2023-10-31T08:33:45;3.30;;;2.77;;
7817;SDS011;3954;52.624;9.212;2023-10-31T08:36:11;4.57;;;2.63;;
7817;SDS011;3954;52.624;9.212;2023-10-31T08:38:38;2.73;;;2.53;;
7817;SDS011;3954;52.624;9.212;2023-10-31T08:41:04;3.57;;;2.47;;
7817;SDS011;3954;52.624;9.212;2023-10-31T08:43:30;5.10;;;2.50;;
7817;SDS011;3954;52.624;9.212;2023-10-31T08:45:56;3.00;;;2.70;;
7817;SDS011;3954;52.624;9.212;2023-10-31T08:48:22;2.80;;;2.60;;
7817;SDS011;3954;52.624;9.212;2023-10-31T08:50:49;2.60;;;2.40;;
7817;SDS011;3954;52.624;9.212;2023-10-31T08:53:15;3.23;;;2.93;;
7817;SDS011;3954;52.624;9.212;2023-10-31T08:55:45;2.70;;;2.50;;
7817;SDS011;3954;52.624;9.212;2023-10-31T08:58:11;3.67;;;2.70;;
7817;SDS011;3954;52.624;9.212;2023-10-31T09:00:42;5.13;;;3.30;;
7817;SDS011;3954;52.624;9.212;2023-10-31T09:03:08;3.17;;;2.90;;
7817;SDS011;3954;52.624;9.212;2023-10-31T09:05:34;3.33;;;3.03;;
7817;SDS011;3954;52.624;9.212;2023-10-31T09:08:00;3.20;;;3.00;;
7817;SDS011;3954;52.624;9.212;2023-10-31T09:10:27;4.37;;;3.53;;
7817;SDS011;3954;52.624;9.212;2023-10-31T09:12:54;4.00;;;3.70;;
7817;SDS011;3954;52.624;9.212;2023-10-31T09:15:20;3.50;;;3.20;;
7817;SDS011;3954;52.624;9.212;2023-10-31T09:17:46;3.53;;;3.27;;
7817;SDS011;3954;52.624;9.212;2023-10-31T09:20:12;3.60;;;3.33;;
7817;SDS011;3954;52.624;9.212;2023-10-31T09:22:38;4.97;;;3.73;;
7817;SDS011;3954;52.624;9.212;2023-10-31T09:25:05;3.60;;;3.33;;
7817;SDS011;3954;52.624;9.212;2023-10-31T09:27:31;4.00;;;3.67;;
7817;SDS011;3954;52.624;9.212;2023-10-31T09:29:58;4.00;;;3.60;;
7817;SDS011;3954;52.624;9.212;2023-10-31T09:32:24;3.73;;;3.23;;
7817;SDS011;3954;52.624;9.212;2023-10-31T09:34:50;3.63;;;3.33;;
7817;SDS011;3954;52.624;9.212;2023-10-31T09:37:16;2.93;;;2.73;;
7817;SDS011;3954;52.624;9.212;2023-10-31T09:39:42;2.80;;;2.50;;
7817;SDS011;3954;52.624;9.212;2023-10-31T09:42:08;2.90;;;2.70;;
7817;SDS011;3954;52.624;9.212;2023-10-31T09:44:34;2.53;;;2.33;;
7817;SDS011;3954;52.624;9.212;2023-10-31T09:47:02;2.17;;;2.07;;
7817;SDS011;3954;52.624;9.212;2023-10-31T09:49:28;2.37;;;2.10;;
7817;SDS011;3954;52.624;9.212;2023-10-31T09:51:54;2.30;;;1.80;;
7817;SDS011;3954;52.624;9.212;2023-10-31T09:54:21;2.10;;;1.90;;
7817;SDS011;3954;52.624;9.212;2023-10-31T09:56:48;1.90;;;1.80;;
7817;SDS011;3954;52.624;9.212;2023-10-31T09:59:14;2.20;;;2.00;;
7817;SDS011;3954;52.624;9.212;2023-10-31T10:01:41;2.07;;;1.83;;
7817;SDS011;3954;52.624;9.212;2023-10-31T10:04:08;2.00;;;1.80;;
7817;SDS011;3954;52.624;9.212;2023-10-31T10:06:34;2.63;;;2.00;;
7817;SDS011;3954;52.624;9.212;2023-10-31T10:09:00;1.83;;;1.63;;
7817;SDS011;3954;52.624;9.212;2023-10-31T10:11:32;2.37;;;1.60;;
7817;SDS011;3954;52.624;9.212;2023-10-31T10:13:58;1.83;;;1.73;;
7817;SDS011;3954;52.624;9.212;2023-10-31T10:16:28;3.50;;;1.90;;
7817;SDS011;3954;52.624;9.212;2023-10-31T10:18:54;2.57;;;1.80;;
7817;SDS011;3954;52.624;9.212;2023-10-31T10:21:22;2.77;;;1.97;;
7817;SDS011;3954;52.624;9.212;2023-10-31T10:23:48;3.07;;;2.07;;
7817;SDS011;3954;52.624;9.212;2023-10-31T10:26:17;1.93;;;1.70;;
7817;SDS011;3954;52.624;9.212;2023-10-31T10:28:46;1.50;;;1.40;;
7817;SDS011;3954;52.624;9.212;2023-10-31T10:31:13;2.30;;;2.10;;
7817;SDS011;3954;52.624;9.212;2023-10-31T10:33:40;3.00;;;1.80;;
7817;SDS011;3954;52.624;9.212;2023-10-31T10:36:06;2.33;;;1.90;;
7817;SDS011;3954;52.624;9.212;2023-10-31T10:38:35;2.80;;;1.70;;
7817;SDS011;3954;52.624;9.212;2023-10-31T10:41:01;3.13;;;1.93;;
7817;SDS011;3954;52.624;9.212;2023-10-31T10:43:27;2.23;;;1.83;;
7817;SDS011;3954;52.624;9.212;2023-10-31T10:45:54;1.87;;;1.53;;
7817;SDS011;3954;52.624;9.212;2023-10-31T10:48:21;2.10;;;1.90;;
7817;SDS011;3954;52.624;9.212;2023-10-31T10:50:50;2.13;;;1.70;;
7817;SDS011;3954;52.624;9.212;2023-10-31T10:53:19;2.27;;;1.80;;
7817;SDS011;3954;52.624;9.212;2023-10-31T10:55:50;2.90;;;1.80;;
7817;SDS011;3954;52.624;9.212;2023-10-31T10:58:19;1.93;;;1.83;;
7817;SDS011;3954;52.624;9.212;2023-10-31T11:00:48;1.70;;;1.60;;
7817;SDS011;3954;52.624;9.212;2023-10-31T11:03:14;3.00;;;1.93;;
7817;SDS011;3954;52.624;9.212;2023-10-31T11:05:41;2.93;;;2.00;;
7817;SDS011;3954;52.624;9.212;2023-10-31T11:08:07;2.10;;;1.80;;
7817;SDS011;3954;52.624;9.212;2023-10-31T11:10:33;2.10;;;1.90;;
7817;SDS011;3954;52.624;9.212;2023-10-31T11:13:01;2.57;;;1.67;;
7817;SDS011;3954;52.624;9.212;2023-10-31T11:15:27;2.33;;;1.57;;
7817;SDS011;3954;52.624;9.212;2023-10-31T11:17:54;2.97;;;1.50;;
7817;SDS011;3954;52.624;9.212;2023-10-31T11:20:21;2.10;;;1.60;;
7817;SDS011;3954;52.624;9.212;2023-10-31T11:22:47;2.83;;;1.57;;
7817;SDS011;3954;52.624;9.212;2023-10-31T11:25:15;1.73;;;1.40;;
7817;SDS011;3954;52.624;9.212;2023-10-31T11:27:41;2.90;;;1.63;;
7817;SDS011;3954;52.624;9.212;2023-10-31T11:30:19;2.07;;;1.67;;
7817;SDS011;3954;52.624;9.212;2023-10-31T11:32:47;2.17;;;1.57;;
7817;SDS011;3954;52.624;9.212;2023-10-31T11:35:13;2.37;;;1.80;;
7817;SDS011;3954;52.624;9.212;2023-10-31T11:37:39;2.63;;;1.60;;
7817;SDS011;3954;52.624;9.212;2023-10-31T11:40:15;1.67;;;1.57;;
7817;SDS011;3954;52.624;9.212;2023-10-31T11:42:41;3.23;;;1.80;;
7817;SDS011;3954;52.624;9.212;2023-10-31T11:45:09;2.03;;;1.60;;
7817;SDS011;3954;52.624;9.212;2023-10-31T11:47:45;2.53;;;1.40;;
7817;SDS011;3954;52.624;9.212;2023-10-31T11:50:11;2.83;;;1.40;;
7817;SDS011;3954;52.624;9.212;2023-10-31T11:52:37;1.53;;;1.37;;
7817;SDS011;3954;52.624;9.212;2023-10-31T11:55:04;2.77;;;1.30;;
7817;SDS011;3954;52.624;9.212;2023-10-31T11:57:30;1.40;;;1.30;;
7817;SDS011;3954;52.624;9.212;2023-10-31T11:59:56;2.10;;;1.33;;
7817;SDS011;3954;52.624;9.212;2023-10-31T12:02:23;1.50;;;1.40;;
7817;SDS011;3954;52.624;9.212;2023-10-31T12:04:50;1.90;;;1.30;;
7817;SDS011;3954;52.624;9.212;2023-10-31T12:07:18;1.50;;;1.40;;
7817;SDS011;3954;52.624;9.212;2023-10-31T12:09:47;1.50;;;1.40;;
7817;SDS011;3954;52.624;9.212;2023-10-31T12:12:13;3.13;;;1.60;;
7817;SDS011;3954;52.624;9.212;2023-10-31T12:14:39;2.77;;;1.40;;
7817;SDS011;3954;52.624;9.212;2023-10-31T12:17:05;3.83;;;1.30;;
7817;SDS011;3954;52.624;9.212;2023-10-31T12:19:33;2.70;;;1.47;;
7817;SDS011;3954;52.624;9.212;2023-10-31T12:21:59;3.03;;;1.50;;
7817;SDS011;3954;52.624;9.212;2023-10-31T12:24:27;2.63;;;1.20;;
7817;SDS011;3954;52.624;9.212;2023-10-31T12:26:53;3.00;;;1.50;;
7817;SDS011;3954;52.624;9.212;2023-10-31T12:29:19;1.70;;;1.23;;
7817;SDS011;3954;52.624;9.212;2023-10-31T12:31:46;1.77;;;1.13;;
7817;SDS011;3954;52.624;9.212;2023-10-31T12:34:12;1.27;;;1.13;;
7817;SDS011;3954;52.624;9.212;2023-10-31T12:36:40;4.57;;;1.40;;
7817;SDS011;3954;52.624;9.212;2023-10-31T12:39:07;1.20;;;1.10;;
7817;SDS011;3954;52.624;9.212;2023-10-31T12:41:34;5.10;;;1.53;;
7817;SDS011;3954;52.624;9.212;2023-10-31T12:44:00;2.77;;;1.23;;
7817;SDS011;3954;52.624;9.212;2023-10-31T12:46:29;3.13;;;1.20;;
7817;SDS011;3954;52.624;9.212;2023-10-31T12:48:55;2.73;;;1.40;;
7817;SDS011;3954;52.624;9.212;2023-10-31T12:51:21;1.53;;;1.00;;
7817;SDS011;3954;52.624;9.212;2023-10-31T12:53:49;1.77;;;1.17;;
7817;SDS011;3954;52.624;9.212;2023-10-31T12:58:57;2.17;;;1.23;;
7817;SDS011;3954;52.624;9.212;2023-10-31T13:01:26;1.27;;;1.10;;
7817;SDS011;3954;52.624;9.212;2023-10-31T13:03:52;1.83;;;1.17;;
7817;SDS011;3954;52.624;9.212;2023-10-31T13:06:19;1.90;;;1.00;;
7817;SDS011;3954;52.624;9.212;2023-10-31T13:08:45;0.93;;;0.90;;
7817;SDS011;3954;52.624;9.212;2023-10-31T13:11:12;1.17;;;1.07;;
7817;SDS011;3954;52.624;9.212;2023-10-31T13:13:39;2.30;;;1.00;;
7817;SDS011;3954;52.624;9.212;2023-10-31T13:16:05;1.50;;;1.10;;
7817;SDS011;3954;52.624;9.212;2023-10-31T13:18:31;1.47;;;0.77;;
7817;SDS011;3954;52.624;9.212;2023-10-31T13:20:57;1.80;;;1.03;;
7817;SDS011;3954;52.624;9.212;2023-10-31T13:23:23;2.10;;;1.07;;
7817;SDS011;3954;52.624;9.212;2023-10-31T13:25:49;3.50;;;0.97;;
7817;SDS011;3954;52.624;9.212;2023-10-31T13:28:16;1.83;;;0.90;;
7817;SDS011;3954;52.624;9.212;2023-10-31T13:30:42;3.77;;;0.90;;
7817;SDS011;3954;52.624;9.212;2023-10-31T13:33:10;1.57;;;1.00;;
7817;SDS011;3954;52.624;9.212;2023-10-31T13:35:36;1.50;;;1.00;;
7817;SDS011;3954;52.624;9.212;2023-10-31T13:38:02;3.93;;;1.13;;
7817;SDS011;3954;52.624;9.212;2023-10-31T13:40:28;2.00;;;1.10;;
7817;SDS011;3954;52.624;9.212;2023-10-31T13:42:54;1.80;;;1.10;;
7817;SDS011;3954;52.624;9.212;2023-10-31T13:45:22;2.07;;;0.70;;
7817;SDS011;3954;52.624;9.212;2023-10-31T13:47:48;1.10;;;1.00;;
7817;SDS011;3954;52.624;9.212;2023-10-31T13:50:14;1.57;;;1.10;;
7817;SDS011;3954;52.624;9.212;2023-10-31T13:52:40;1.40;;;1.13;;
7817;SDS011;3954;52.624;9.212;2023-10-31T13:55:07;1.10;;;1.10;;
7817;SDS011;3954;52.624;9.212;2023-10-31T13:57:33;1.13;;;1.07;;
7817;SDS011;3954;52.624;9.212;2023-10-31T13:59:59;1.37;;;0.90;;
7817;SDS011;3954;52.624;9.212;2023-10-31T14:02:27;0.70;;;0.70;;
7817;SDS011;3954;52.624;9.212;2023-10-31T14:04:53;3.23;;;1.20;;
7817;SDS011;3954;52.624;9.212;2023-10-31T14:07:20;1.40;;;1.30;;
7817;SDS011;3954;52.624;9.212;2023-10-31T14:09:49;2.67;;;1.10;;
7817;SDS011;3954;52.624;9.212;2023-10-31T14:12:16;3.97;;;1.30;;
7817;SDS011;3954;52.624;9.212;2023-10-31T14:14:42;0.97;;;0.90;;
7817;SDS011;3954;52.624;9.212;2023-10-31T14:17:08;1.70;;;1.20;;
7817;SDS011;3954;52.624;9.212;2023-10-31T14:19:35;1.73;;;1.40;;
7817;SDS011;3954;52.624;9.212;2023-10-31T14:22:01;2.13;;;1.33;;
7817;SDS011;3954;52.624;9.212;2023-10-31T14:24:27;2.00;;;1.13;;
7817;SDS011;3954;52.624;9.212;2023-10-31T14:26:53;2.30;;;1.10;;
7817;SDS011;3954;52.624;9.212;2023-10-31T14:29:20;1.73;;;1.20;;
7817;SDS011;3954;52.624;9.212;2023-10-31T14:31:46;1.40;;;1.30;;
7817;SDS011;3954;52.624;9.212;2023-10-31T14:34:12;2.10;;;1.10;;
7817;SDS011;3954;52.624;9.212;2023-10-31T14:36:39;1.60;;;1.00;;
7817;SDS011;3954;52.624;9.212;2023-10-31T14:39:05;1.60;;;1.30;;
7817;SDS011;3954;52.624;9.212;2023-10-31T14:41:32;2.37;;;1.20;;
7817;SDS011;3954;52.624;9.212;2023-10-31T14:43:59;2.03;;;1.50;;
7817;SDS011;3954;52.624;9.212;2023-10-31T14:46:26;1.40;;;1.30;;
7817;SDS011;3954;52.624;9.212;2023-10-31T14:48:52;3.20;;;1.10;;
7817;SDS011;3954;52.624;9.212;2023-10-31T14:51:18;1.83;;;1.60;;
7817;SDS011;3954;52.624;9.212;2023-10-31T14:53:46;1.20;;;1.00;;
7817;SDS011;3954;52.624;9.212;2023-10-31T14:56:12;5.00;;;1.70;;
7817;SDS011;3954;52.624;9.212;2023-10-31T14:58:38;2.10;;;1.10;;
7817;SDS011;3954;52.624;9.212;2023-10-31T15:01:05;1.67;;;1.10;;
7817;SDS011;3954;52.624;9.212;2023-10-31T15:03:31;1.43;;;1.10;;
7817;SDS011;3954;52.624;9.212;2023-10-31T15:05:57;2.03;;;1.17;;
7817;SDS011;3954;52.624;9.212;2023-10-31T15:08:23;1.33;;;1.23;;
7817;SDS011;3954;52.624;9.212;2023-10-31T15:10:52;2.30;;;1.30;;
7817;SDS011;3954;52.624;9.212;2023-10-31T15:13:20;2.53;;;1.13;;